Francis, Oklahoma
Current Conditions -  °F | °C
As of 7:55 AM on Saturday 25 Oct 2014 (Local Time) from KADH Reporting Station
Clear Clear  
Wind Chill: 59°   Ceiling: Unl
Heat Index: 59°   Visibility: 7mi
Dew Point: 59°   Wind: 3mph
Humidity: 100%   Direction: 170°S
Pressure: 30.09"   Gusts: NA
Location:  34.87°N, 96.6°W
Report Text: KADH 251255Z AUTO 17003KT 7SM CLR 15/15 A3009 RMK AO2
Loading
Personal Weather Stations






























Interactive Weather Map
Tropical Storm Tracking
New forecast layout! Learn more

10-Day Weather Forecast

Advertisements
Track Severe Weather on mobile